• Join FlightAware (Why Join?)
  • Login
  • US Flag 
11:24PM EDT


 

Airport Tracker/Info


-or-


 

Live Flight TrackerFlight Track Log ✈ AAR8730 ✈ 08-Sep-2013 ✈ RKJY / RSU - RKSS / GMP

Flight Track Log - Related Links

Times and Time Zones

All times are in EDT time to prevent confusion due to time zone crossing. See the AAR8730 flight status page for this flight to view local times or setup timezone preferences in your user account.

Time Position Orientation Groundspeed Altitude Reporting Facility
EDT Latitude Longitude Course Direction KTS MPH feet Rate Location/Type
12:06AM 35.2408 127.4973 346° North  Level Estimated
12:07AM 35.3210 127.4736 346° North  Level Estimated
12:08AM 35.4012 127.4498 346° North  Level Estimated
12:09AM 35.4813 127.4259 346° North  Level Estimated
12:10AM 35.5615 127.4020 346° North  Level Estimated
12:11AM 35.6417 127.3781 346° North  Level Estimated
12:12AM 35.7218 127.3541 346° North  Level Estimated
12:13AM 35.8020 127.3301 346° North  Level Estimated
12:14AM 35.8821 127.3060 346° North  Level Estimated
12:15AM 35.9623 127.2819 346° North  Level Estimated
12:16AM 36.0424 127.2577 346° North  Level Estimated
12:17AM 36.1226 127.2335 346° North  Level Estimated
12:18AM 36.2027 127.2092 346° North  Level Estimated
12:19AM 36.2828 127.1849 346° North  Level Estimated
12:20AM 36.3630 127.1605 346° North  Level Estimated
12:21AM 36.4431 127.1361 346° North  Level Estimated
12:22AM 36.5232 127.1116 346° North  Level Estimated
12:23AM 36.6033 127.0871 346° North  Level Estimated
12:24AM 36.6834 127.0625 346° North  Level Estimated
12:25AM 36.7635 127.0379 346° North  Level Estimated
12:26AM 36.8436 127.0132 346° North  Level Estimated
12:27AM 36.9237 126.9885 346° North  Level Estimated
12:28AM 37.0038 126.9637 346° North  Level Estimated
12:29AM 37.0838 126.9389 346° North  Level Estimated
12:30AM 37.1639 126.9140 346° North  Level Estimated
12:30AM 37.3410 127.0590 346° North 190 219 5,900  Level FlightAware
12:31AM 37.2440 126.8890 346° North  Level Estimated
12:31AM 37.3530 127.0450 317° Northwest 194 223 5,400  Level FlightAware
12:31AM 37.3640 127.0300 313° West 187 215 5,000 -1,380 Descending FlightAware
12:31AM 37.3760 127.0160 317° Northwest 187 215 4,600 -1,200 Descending FlightAware
12:31AM 37.3850 127.0050 316° Northwest 186 214 4,300 -1,020 Descending FlightAware
12:32AM 37.4000 126.9860 315° West 183 211 3,900 -1,080 Descending FlightAware
12:32AM 37.4160 126.9660 315° West 187 215 3,500 -540 Descending FlightAware
12:33AM 37.4320 126.9460 315° West 187 215 3,400 -180 Descending FlightAware
12:35AM 37.5284 126.8274 316° Northwest  Level Estimated
12:36AM 37.5583 126.7906 316° Northwest  Level Estimated
12:37AM 37.5583 126.7906 288° West  Level Estimated
12:38AM 37.5583 126.7906 288° West  Level Estimated
12:39AM 37.5583 126.7906 288° West  Level Estimated
12:40AM 37.5583 126.7906 288° West  Level Estimated
12:41AM 37.5583 126.7906 288° West  Level Estimated
12:42AM 37.5583 126.7906 288° West  Level Estimated
12:43AM 37.5583 126.7906 288° West  Level Estimated
12:44AM 37.5583 126.7906 288° West  Level Estimated
12:45AM 37.5583 126.7906 288° West  Level Estimated
12:46AM 37.5583 126.7906 288° West  Level Estimated
12:47AM 37.5583 126.7906 288° West  Level Estimated